Time;durP1;ratioP1;P1;durP2;ratioP2;P2;SDS_P1;SDS_P2;PMS_P1;PMS_P2;Temp;Humidity;BMP_temperature;BMP_pressure;BME280_temperature;BME280_humidity;BME280_pressure;Samples;Min_cycle;Max_cycle;Signal;HPM_P1;HPM_P2
2023/10/18 00:02:55;;;;;;;6.53;5.83;;;;;;;-3.01;100.00;95842.19;7393886;19;20408;-90
2023/10/18 00:05:24;;;;;;;6.20;5.60;;;;;;;-2.57;100.00;95886.59;7396151;19;20384;-91
2023/10/18 00:07:52;;;;;;;6.20;5.17;;;;;;;-3.48;100.00;95746.59;7395776;19;20405;-90
2023/10/18 00:10:20;;;;;;;6.23;4.53;;;;;;;-3.58;100.00;95752.50;7397352;19;20890;-89
2023/10/18 00:12:48;;;;;;;5.37;4.80;;;;;;;-2.71;100.00;95894.03;7395473;19;20397;-90
2023/10/18 00:15:15;;;;;;;5.57;5.07;;;;;;;-3.68;100.00;95773.88;7395807;19;20389;-90
2023/10/18 00:17:44;;;;;;;6.57;5.30;;;;;;;-3.92;100.00;95749.44;7395319;19;20396;-90
2023/10/18 00:20:15;;;;;;;7.67;4.97;;;;;;;-3.38;100.00;95819.78;7396851;19;20388;-90
2023/10/18 00:22:43;;;;;;;4.77;4.30;;;;;;;-3.30;100.00;95823.69;7394722;19;20397;-90
2023/10/18 00:25:11;;;;;;;5.03;4.00;;;;;;;-3.21;100.00;95808.47;7396883;19;20377;-90
2023/10/18 00:27:39;;;;;;;4.27;3.87;;;;;;;-3.68;100.00;95726.63;7401958;19;20424;-89
2023/10/18 00:30:12;;;;;;;3.83;3.43;;;;;;;-3.24;100.00;95820.09;7423812;19;20381;-88
2023/10/18 00:32:42;;;;;;;5.07;4.00;;;;;;;-3.95;100.00;95732.66;7424959;19;20396;-89
2023/10/18 00:35:18;;;;;;;5.33;4.37;;;;;;;-3.77;100.00;95814.09;7420490;19;20393;-90
2023/10/18 00:37:57;;;;;;;5.90;4.57;;;;;;;-3.46;100.00;95850.47;7397736;19;20548;-90
2023/10/18 00:43:22;;;;;;;3.67;3.37;;;;;;;-3.47;100.00;95802.41;7395591;19;20377;-90
2023/10/18 00:45:51;;;;;;;7.10;4.07;;;;;;;-3.20;100.00;95875.44;7397207;19;20712;-90
2023/10/18 00:48:22;;;;;;;3.87;3.47;;;;;;;-4.30;100.00;95694.47;7396293;19;20483;-89
2023/10/18 00:50:54;;;;;;;4.07;3.67;;;;;;;-4.69;100.00;95608.06;7397275;19;20449;-89
2023/10/18 00:53:23;;;;;;;4.20;3.80;;;;;;;-4.34;100.00;95659.91;7396611;19;20388;-89
2023/10/18 00:55:57;;;;;;;4.30;3.90;;;;;;;-5.21;100.00;95521.09;7398442;19;20409;-90
2023/10/18 00:58:27;;;;;;;4.13;3.77;;;;;;;-3.83;100.00;95745.38;7395470;19;20400;-90
2023/10/18 01:00:56;;;;;;;7.37;3.90;;;;;;;-4.19;100.00;95705.66;7396690;19;20768;-90
2023/10/18 01:03:35;;;;;;;4.30;3.90;;;;;;;-4.53;100.00;95648.44;7402694;19;20421;-90
2023/10/18 01:06:04;;;;;;;7.73;3.97;;;;;;;-3.12;100.00;95856.09;7420025;19;20377;-90
2023/10/18 01:08:33;;;;;;;5.87;3.90;;;;;;;-3.24;100.00;95834.81;7417473;19;20448;-89
2023/10/18 01:11:06;;;;;;;4.20;3.80;;;;;;;-3.31;100.00;95850.56;7409811;19;20440;-90
2023/10/18 01:13:42;;;;;;;5.70;4.60;;;;;;;-3.55;100.00;95836.47;7394236;19;20388;-89
2023/10/18 01:16:23;;;;;;;4.13;3.00;;;;;;;-4.07;100.00;95733.88;7393751;19;20380;-89
2023/10/18 01:18:54;;;;;;;4.03;3.63;;;;;;;-4.25;100.00;95720.34;7392776;19;20492;-90
2023/10/18 01:21:22;;;;;;;5.90;4.10;;;;;;;-3.90;100.00;95780.97;7392710;19;20993;-90
2023/10/18 01:23:51;;;;;;;6.30;5.70;;;;;;;-3.80;100.00;95783.63;7392982;19;20461;-89
2023/10/18 01:26:26;;;;;;;8.53;6.17;;;;;;;-4.27;100.00;95713.88;7393214;19;20395;-90
2023/10/18 01:28:55;;;;;;;10.10;7.00;;;;;;;-4.73;100.00;95677.41;7391972;19;20787;-89
2023/10/18 01:31:23;;;;;;;10.80;7.70;;;;;;;-3.72;100.00;95805.63;7393195;19;20397;-90
2023/10/18 01:33:51;;;;;;;11.03;9.00;;;;;;;-4.68;100.00;95661.97;7394493;19;20369;-90
2023/10/18 01:36:21;;;;;;;17.00;11.73;;;;;;;-4.02;100.00;95770.03;7390761;19;20368;-90
2023/10/18 01:38:52;;;;;;;18.63;11.60;;;;;;;-3.71;100.00;95791.69;7392016;19;20793;-90
2023/10/18 01:41:26;;;;;;;20.03;12.63;;;;;;;-3.93;100.00;95740.16;7392599;19;20403;-90
2023/10/18 01:44:11;;;;;;;14.00;10.90;;;;;;;-3.45;100.00;95795.19;7393282;19;20389;-89
2023/10/18 01:46:46;;;;;;;18.60;11.07;;;;;;;-3.31;100.00;95799.66;7392618;19;20368;-89
2023/10/18 01:49:18;;;;;;;17.53;11.63;;;;;;;-3.83;100.00;95704.06;7391393;19;20430;-89
2023/10/18 01:51:47;;;;;;;25.70;12.07;;;;;;;-3.46;100.00;95768.59;7392575;19;20414;-90
2023/10/18 01:54:15;;;;;;;17.70;10.70;;;;;;;-3.80;100.00;95719.06;7392360;19;20416;-89
2023/10/18 01:56:46;;;;;;;18.00;11.10;;;;;;;-3.59;100.00;95738.81;7391975;19;20729;-89
2023/10/18 01:59:16;;;;;;;14.33;10.30;;;;;;;-3.16;100.00;95811.88;7391449;19;20421;-91
2023/10/18 02:01:53;;;;;;;11.40;8.70;;;;;;;-3.70;100.00;95721.72;7391944;19;20408;-90
2023/10/18 02:04:27;;;;;;;14.00;9.10;;;;;;;-3.49;100.00;95757.97;7391776;19;20935;-90
2023/10/18 02:06:59;;;;;;;10.90;7.30;;;;;;;-3.79;100.00;95741.28;7391910;19;20401;-90
2023/10/18 02:09:35;;;;;;;9.10;6.90;;;;;;;-3.52;100.00;95779.91;7391136;19;20396;-90
2023/10/18 02:12:06;;;;;;;8.03;6.00;;;;;;;-4.64;100.00;95623.59;7391913;19;20412;-90
2023/10/18 02:14:33;;;;;;;7.90;7.20;;;;;;;-3.99;100.00;95710.19;7392307;19;20388;-89
2023/10/18 02:17:01;;;;;;;6.40;5.67;;;;;;;-3.46;100.00;95794.41;7397008;19;20747;-90
2023/10/18 02:19:28;;;;;;;8.27;7.03;;;;;;;-4.87;100.00;95617.75;7390442;19;20429;-91
2023/10/18 02:21:56;;;;;;;7.37;6.63;;;;;;;-3.74;100.00;95766.34;7390843;19;20392;-91
2023/10/18 02:24:24;;;;;;;8.57;6.53;;;;;;;-4.30;100.00;95670.47;7392098;19;20749;-90
2023/10/18 02:26:54;;;;;;;9.47;6.97;;;;;;;-3.38;100.00;95782.81;7391512;19;20385;-91
2023/10/18 02:29:22;;;;;;;9.97;6.90;;;;;;;-5.00;100.00;95564.03;7389811;19;20428;-90
2023/10/18 02:31:52;;;;;;;11.20;7.30;;;;;;;-4.57;100.00;95653.28;7391709;19;20404;-90
2023/10/18 02:34:19;;;;;;;7.23;6.40;;;;;;;-4.61;100.00;95649.66;7390949;19;20388;-90
2023/10/18 02:36:57;;;;;;;7.30;5.70;;;;;;;-5.00;100.00;95587.22;7391756;19;20380;-91
2023/10/18 02:39:28;;;;;;;6.47;5.27;;;;;;;-4.10;100.00;95713.72;7389925;19;20443;-91
2023/10/18 02:41:58;;;;;;;5.77;5.17;;;;;;;-3.99;100.00;95728.25;7390855;19;20389;-91
2023/10/18 02:44:28;;;;;;;14.33;7.10;;;;;;;-5.08;100.00;95567.06;7390815;19;20407;-90
2023/10/18 02:49:46;;;;;;;12.17;7.60;;;;;;;-5.07;100.00;95533.34;7395552;19;20423;-90
2023/10/18 02:52:16;;;;;;;11.67;7.67;;;;;;;-3.99;100.00;95729.03;7398072;19;20432;-89
2023/10/18 02:54:48;;;;;;;7.30;5.87;;;;;;;-4.59;100.00;95649.41;7398221;19;20381;-90
2023/10/18 02:57:15;;;;;;;9.97;7.93;;;;;;;-5.16;100.00;95572.69;7398438;19;20388;-90
2023/10/18 02:59:43;;;;;;;8.93;7.07;;;;;;;-4.73;100.00;95619.91;7395373;19;20416;-90
2023/10/18 03:02:14;;;;;;;9.43;8.63;;;;;;;-4.78;100.00;95593.06;7397128;19;20396;-90
2023/10/18 03:04:47;;;;;;;10.97;8.00;;;;;;;-3.70;100.00;95762.25;7397157;19;20400;-89
2023/10/18 03:07:15;;;;;;;12.50;8.40;;;;;;;-3.60;100.00;95773.41;7397317;19;20420;-90
2023/10/18 03:09:48;;;;;;;14.50;6.17;;;;;;;-4.85;100.00;95561.56;7394652;19;20376;-91
2023/10/18 03:12:15;;;;;;;8.90;5.60;;;;;;;-4.56;100.00;95611.00;7397743;19;20406;-90
2023/10/18 03:14:55;;;;;;;9.27;5.40;;;;;;;-3.48;100.00;95765.44;7397294;19;20396;-89
2023/10/18 03:19:55;;;;;;;5.83;5.20;;;;;;;-4.80;100.00;95609.81;7394549;19;20488;-90
2023/10/18 03:22:29;;;;;;;5.10;4.70;;;;;;;-4.51;100.00;95654.09;7396038;19;20397;-89
2023/10/18 03:24:59;;;;;;;5.10;4.67;;;;;;;-4.69;100.00;95642.34;7397034;19;20385;-90
2023/10/18 03:27:30;;;;;;;6.90;4.93;;;;;;;-4.71;100.00;95648.78;7397046;19;20468;-90
2023/10/18 03:29:58;;;;;;;6.30;4.80;;;;;;;-6.81;100.00;95320.34;7394914;19;20432;-89
2023/10/18 03:32:26;;;;;;;5.37;4.87;;;;;;;-5.18;100.00;95580.66;7397159;19;20385;-89
2023/10/18 03:34:54;;;;;;;4.63;4.23;;;;;;;-4.51;100.00;95654.09;7396659;19;20452;-90
2023/10/18 03:37:21;;;;;;;4.93;4.47;;;;;;;-5.41;100.00;95530.22;7396431;19;20393;-90
2023/10/18 03:39:55;;;;;;;5.20;4.70;;;;;;;-5.73;100.00;95489.03;7394109;19;20412;-89
2023/10/18 03:42:31;;;;;;;5.27;4.77;;;;;;;-5.58;100.00;95506.41;7396140;19;20397;-91
2023/10/18 03:45:00;;;;;;;5.20;4.70;;;;;;;-5.28;100.00;95619.19;7396063;19;20376;-90
2023/10/18 03:50:36;;;;;;;6.50;4.97;;;;;;;-4.70;100.00;95658.84;7397535;19;20400;-88
2023/10/18 03:53:06;;;;;;;5.00;4.50;;;;;;;-4.65;100.00;95669.22;7395988;19;20404;-89
2023/10/18 03:55:39;;;;;;;4.87;3.90;;;;;;;-4.89;100.00;95624.94;7395128;19;20389;-89
2023/10/18 03:58:06;;;;;;;4.60;4.20;;;;;;;-4.94;100.00;95599.16;7395539;19;20771;-90
2023/10/18 04:00:46;;;;;;;6.00;4.43;;;;;;;-5.68;100.00;95465.13;7394329;19;20427;-90
2023/10/18 04:03:20;;;;;;;5.40;4.87;;;;;;;-5.37;100.00;95518.41;7394835;19;20451;-90
2023/10/18 04:05:50;;;;;;;6.17;5.17;;;;;;;-4.81;100.00;95596.16;7396592;19;20400;-91
2023/10/18 04:08:21;;;;;;;5.53;4.97;;;;;;;-4.33;100.00;95676.94;7395268;19;20824;-90
2023/10/18 04:10:58;;;;;;;5.30;4.77;;;;;;;-5.74;100.00;95481.56;7395515;19;20376;-91
2023/10/18 04:13:35;;;;;;;5.03;4.63;;;;;;;-6.58;100.00;95354.25;7395575;19;20396;-90
2023/10/18 04:16:11;;;;;;;5.80;4.77;;;;;;;-5.77;100.00;95456.28;7395865;19;20993;-90
2023/10/18 04:18:41;;;;;;;8.40;5.60;;;;;;;-5.11;100.00;95541.78;7394843;19;20406;-91
2023/10/18 04:21:15;;;;;;;5.10;4.50;;;;;;;-4.95;100.00;95566.63;7395400;19;20379;-90
2023/10/18 04:23:49;;;;;;;6.23;4.57;;;;;;;-5.02;100.00;95545.47;7393541;19;20400;-90
2023/10/18 04:26:19;;;;;;;6.40;4.90;;;;;;;-5.20;100.00;95507.22;7394689;19;20388;-91
2023/10/18 04:28:48;;;;;;;5.93;4.33;;;;;;;-4.92;100.00;95552.50;7393674;19;20459;-91
2023/10/18 04:31:21;;;;;;;4.30;3.90;;;;;;;-4.79;100.00;95578.63;7394987;19;20768;-91
2023/10/18 04:33:50;;;;;;;5.53;4.10;;;;;;;-5.32;100.00;95476.47;7394288;19;20393;-88
2023/10/18 04:36:27;;;;;;;5.27;4.10;;;;;;;-4.83;100.00;95576.78;7394496;19;20464;-90
2023/10/18 04:38:56;;;;;;;6.83;4.40;;;;;;;-5.55;100.00;95479.38;7393857;19;20488;-91
2023/10/18 04:41:23;;;;;;;6.10;4.40;;;;;;;-4.63;100.00;95618.19;7398824;19;20421;-90
2023/10/18 04:44:06;;;;;;;5.33;4.73;;;;;;;-4.18;100.00;95689.16;7393816;19;20392;-91
2023/10/18 04:46:37;;;;;;;4.97;4.47;;;;;;;-5.37;100.00;95539.00;7395999;19;20405;-89
2023/10/18 04:54:15;;;;;;;6.20;4.50;;;;;;;-5.91;100.00;95429.44;7396130;19;20405;-91
2023/10/18 04:56:45;;;;;;;5.10;4.60;;;;;;;-4.91;100.00;95566.94;7396101;19;20455;-89
2023/10/18 05:04:34;;;;;;;14.47;9.67;;;;;;;-5.31;100.00;95539.06;7393427;19;20935;-90
2023/10/18 05:09:45;;;;;;;12.30;8.50;;;;;;;-5.22;100.00;95540.16;7393514;19;20388;-90
2023/10/18 05:15:08;;;;;;;16.30;9.70;;;;;;;-4.30;100.00;95665.31;7393734;19;20400;-90
2023/10/18 05:17:49;;;;;;;16.23;9.70;;;;;;;-5.31;100.00;95511.50;7394115;19;20463;-89
2023/10/18 05:22:52;;;;;;;12.33;9.60;;;;;;;-4.90;100.00;95509.22;7416791;19;20389;-90
2023/10/18 05:28:08;;;;;;;10.90;8.97;;;;;;;-5.10;100.00;95442.84;7423096;19;20381;-92
2023/10/18 05:38:51;;;;;;;16.50;11.20;;;;;;;-5.11;100.00;95485.88;7392576;19;20392;-91
2023/10/18 05:43:46;;;;;;;13.10;9.90;;;;;;;-4.79;100.00;95554.66;7391301;19;20405;-91
2023/10/18 05:46:13;;;;;;;12.40;9.53;;;;;;;-5.86;100.00;95408.88;7392994;19;20393;-91
2023/10/18 05:48:43;;;;;;;9.83;8.83;;;;;;;-6.27;100.00;95411.13;7391740;19;20416;-90
2023/10/18 05:51:26;;;;;;;8.80;7.30;;;;;;;-5.47;100.00;95528.63;7407609;19;20397;-88
2023/10/18 05:53:59;;;;;;;9.30;8.00;;;;;;;-6.05;100.00;95422.09;7425713;19;20376;-88
2023/10/18 05:56:32;;;;;;;10.33;8.27;;;;;;;-5.02;100.00;95560.94;7424932;19;20393;-90
2023/10/18 06:01:54;;;;;;;12.17;8.37;;;;;;;-4.87;100.00;95560.25;7392925;19;20401;-90
2023/10/18 06:04:24;;;;;;;10.67;9.30;;;;;;;-5.50;100.00;95463.97;7392456;19;20385;-91
2023/10/18 06:06:58;;;;;;;12.30;9.53;;;;;;;-4.39;100.00;95605.69;7392812;19;20388;-91
2023/10/18 06:09:32;;;;;;;12.07;9.50;;;;;;;-5.75;100.00;95385.53;7390083;19;20407;-91
2023/10/18 06:12:00;;;;;;;12.97;11.30;;;;;;;-5.25;100.00;95445.34;7393086;19;20392;-90
2023/10/18 06:14:40;;;;;;;11.30;9.17;;;;;;;-5.45;100.00;95403.00;7390755;19;20356;-91
2023/10/18 06:17:19;;;;;;;13.50;12.20;;;;;;;-4.44;100.00;95530.09;7392836;19;20381;-90
2023/10/18 06:19:49;;;;;;;17.97;12.30;;;;;;;-5.84;100.00;95327.06;7390032;19;20422;-91
2023/10/18 06:22:29;;;;;;;15.17;13.77;;;;;;;-5.29;100.00;95383.25;7393205;19;20392;-90
2023/10/18 06:25:00;;;;;;;16.63;12.90;;;;;;;-5.23;100.00;95384.06;7396862;19;20396;-90
2023/10/18 06:27:28;;;;;;;16.57;12.10;;;;;;;-5.73;100.00;95288.28;7399814;19;20400;-90
2023/10/18 06:29:56;;;;;;;19.30;14.00;;;;;;;-4.20;100.00;95498.47;7397013;19;20432;-90
2023/10/18 06:32:24;;;;;;;16.73;14.97;;;;;;;-4.88;100.00;95380.88;7399587;19;20898;-90
2023/10/18 06:34:58;;;;;;;17.83;14.43;;;;;;;-4.46;100.00;95460.69;7398582;19;20393;-90
2023/10/18 06:37:41;;;;;;;15.10;12.23;;;;;;;-4.94;100.00;95431.63;7399556;19;20371;-90
2023/10/18 06:40:23;;;;;;;18.90;12.20;;;;;;;-4.35;100.00;95482.94;7399014;19;20373;-87
2023/10/18 06:42:50;;;;;;;15.20;13.17;;;;;;;-4.39;100.00;95487.06;7398066;19;20389;-90
2023/10/18 06:45:18;;;;;;;17.73;14.10;;;;;;;-4.82;100.00;95405.63;7398011;19;20949;-90
2023/10/18 06:47:45;;;;;;;24.13;13.60;;;;;;;-4.46;100.00;95478.75;7398124;19;20803;-91
2023/10/18 06:50:19;;;;;;;19.37;12.63;;;;;;;-4.56;100.00;95448.53;7400092;19;20425;-91
2023/10/18 06:52:52;;;;;;;21.47;14.03;;;;;;;-4.55;100.00;95437.19;7398315;19;20389;-91
2023/10/18 06:55:35;;;;;;;13.00;11.70;;;;;;;-5.30;100.00;95339.72;7397910;19;20397;-90
2023/10/18 06:58:22;;;;;;;15.90;12.70;;;;;;;-5.69;100.00;95262.81;7397465;19;20415;-91
2023/10/18 07:00:53;;;;;;;21.37;12.53;;;;;;;-4.11;100.00;95492.81;7397227;19;20389;-90
2023/10/18 07:03:33;;;;;;;15.23;9.70;;;;;;;-3.68;100.00;95563.91;7396863;19;20377;-91
2023/10/18 07:06:23;;;;;;;12.00;9.87;;;;;;;-4.44;100.00;95435.44;7397843;19;20860;-91
2023/10/18 07:08:51;;;;;;;10.33;7.90;;;;;;;-3.38;100.00;95591.63;7396612;19;20411;-91
2023/10/18 07:11:19;;;;;;;9.53;7.83;;;;;;;-3.09;100.00;95615.94;7397649;19;20405;-89
2023/10/18 07:14:00;;;;;;;9.63;8.27;;;;;;;-3.45;100.00;95547.19;7397934;19;20401;-90
2023/10/18 07:16:38;;;;;;;13.47;9.50;;;;;;;-3.50;100.00;95521.31;7397351;19;20392;-91
2023/10/18 07:21:33;;;;;;;13.77;9.40;;;;;;;-3.05;100.00;95573.06;7397525;19;20484;-91
2023/10/18 07:24:02;;;;;;;13.00;9.83;;;;;;;-3.62;100.00;95485.41;7396397;19;20392;-91
2023/10/18 07:26:29;;;;;;;15.50;8.30;;;;;;;-3.61;100.00;95449.00;7396818;19;20388;-90
2023/10/18 07:28:57;;;;;;;15.90;11.13;;;;;;;-2.68;100.00;95572.00;7396179;19;20745;-91
2023/10/18 07:31:32;;;;;;;12.20;10.77;;;;;;;-3.76;100.00;95394.78;7397945;19;20388;-90
2023/10/18 07:34:03;;;;;;;10.20;9.10;;;;;;;-3.29;100.00;95430.66;7395130;19;20446;-90
2023/10/18 07:36:37;;;;;;;10.00;8.90;;;;;;;-2.47;100.00;95531.34;7396422;19;20901;-90
2023/10/18 07:39:05;;;;;;;11.80;10.60;;;;;;;-2.12;100.00;95564.91;7395870;19;20431;-90
2023/10/18 07:41:34;;;;;;;12.23;10.00;;;;;;;-3.00;100.00;95409.41;7397104;19;20460;-90
2023/10/18 07:44:05;;;;;;;13.00;11.00;;;;;;;-2.34;100.00;95483.44;7395670;19;20402;-90
2023/10/18 07:46:34;;;;;;;14.30;10.87;;;;;;;-2.40;100.00;95454.22;7396464;19;20388;-89
2023/10/18 07:49:04;;;;;;;11.03;9.93;;;;;;;-1.99;100.00;95505.81;7394805;19;20427;-90
2023/10/18 07:51:32;;;;;;;12.90;10.60;;;;;;;-2.43;100.00;95402.97;7397566;19;20384;-90
2023/10/18 07:53:59;;;;;;;12.53;9.73;;;;;;;-2.11;100.00;95437.00;7396300;19;20419;-90
2023/10/18 07:56:31;;;;;;;15.57;9.90;;;;;;;-1.83;100.00;95471.78;7395394;19;20420;-90
2023/10/18 08:04:31;;;;;;;37.73;21.10;;;;;;;-2.16;100.00;95413.69;7397146;19;20794;-90
2023/10/18 08:07:00;;;;;;;19.40;15.43;;;;;;;-1.57;100.00;95482.00;7398575;19;20411;-90
2023/10/18 08:09:30;;;;;;;15.70;13.03;;;;;;;-1.83;100.00;95401.09;7395395;19;20412;-90
2023/10/18 08:14:47;;;;;;;16.27;11.77;;;;;;;-1.18;100.00;95411.94;7395469;19;20476;-90
2023/10/18 08:17:30;;;;;;;17.73;13.87;;;;;;;-1.12;100.00;95403.06;7395266;19;20412;-89
2023/10/18 08:26:03;;;;;;;19.00;10.03;;;;;;;0.58;100.00;95545.16;7392588;19;20376;-89
2023/10/18 08:28:59;;;;;;;13.13;10.93;;;;;;;-0.06;100.00;95429.59;7393107;19;20392;-89
2023/10/18 08:31:35;;;;;;;15.93;10.57;;;;;;;-0.51;100.00;95345.31;7395087;19;20398;-90
2023/10/18 08:34:06;;;;;;;13.87;10.50;;;;;;;1.21;100.00;95562.19;7394876;19;20400;-89
2023/10/18 08:36:33;;;;;;;14.70;10.50;;;;;;;0.39;100.00;95435.19;7394615;19;20489;-89
2023/10/18 08:39:02;;;;;;;13.67;11.67;;;;;;;1.61;100.00;95599.81;7394231;19;20385;-89
2023/10/18 08:41:35;;;;;;;14.67;12.13;;;;;;;1.14;100.00;95507.88;7395859;19;20411;-89
2023/10/18 08:44:16;;;;;;;23.33;12.50;;;;;;;0.51;100.00;95378.31;7394308;19;20392;-89
2023/10/18 08:49:23;;;;;;;13.73;10.97;;;;;;;2.14;100.00;95581.13;7394030;19;20416;-90
2023/10/18 08:51:56;;;;;;;13.27;11.00;;;;;;;2.28;100.00;95575.91;7396204;19;20910;-89
2023/10/18 08:54:24;;;;;;;12.63;10.10;;;;;;;0.67;100.00;95313.84;7394445;19;20381;-88
2023/10/18 08:56:52;;;;;;;12.50;10.43;;;;;;;2.52;100.00;95557.41;7394473;19;20416;-90
2023/10/18 08:59:19;;;;;;;12.57;9.70;;;;;;;2.50;100.00;95543.88;7394449;19;20417;-89
2023/10/18 09:02:39;;;;;;;10.50;9.40;;;;;;;2.10;100.00;95467.28;7393810;19;20945;-89
2023/10/18 09:04:37;;;;;;;10.57;9.47;;;;;;;1.46;100.00;95344.84;7393857;19;20413;-89
2023/10/18 09:07:23;;;;;;;10.77;9.43;;;;;;;3.02;100.00;95557.34;7393575;19;20938;-89
2023/10/18 09:09:57;;;;;;;10.57;8.80;;;;;;;3.13;100.00;95562.03;7392177;19;20412;-89
2023/10/18 09:13:03;;;;;;;13.70;9.10;;;;;;;3.29;100.00;95565.06;7393177;19;20392;-89
2023/10/18 09:15:35;;;;;;;9.23;8.20;;;;;;;2.38;100.00;95401.72;7393661;19;20411;-88
2023/10/18 09:18:14;;;;;;;10.23;9.07;;;;;;;3.00;100.00;95481.16;7393100;19;20415;-90
2023/10/18 09:20:42;;;;;;;11.93;8.20;;;;;;;3.37;100.00;95522.56;7393429;19;20392;-89
2023/10/18 09:23:20;;;;;;;11.50;9.10;;;;;;;3.43;100.00;95523.19;7393601;19;20400;-88
2023/10/18 09:25:51;;;;;;;9.70;8.70;;;;;;;3.36;100.00;95488.91;7393313;19;20392;-89
2023/10/18 09:28:33;;;;;;;11.77;8.60;;;;;;;3.75;100.00;95540.41;7392725;19;20392;-89
2023/10/18 09:31:09;;;;;;;15.07;8.80;;;;;;;3.78;100.00;95530.13;7393772;19;20962;-89
2023/10/18 09:33:38;;;;;;;10.63;8.70;;;;;;;4.15;100.00;95560.25;7393432;19;20384;-89
2023/10/18 09:36:19;;;;;;;9.90;8.37;;;;;;;4.29;100.00;95556.75;7392576;19;20977;-89
2023/10/18 09:38:48;;;;;;;17.10;10.40;;;;;;;3.83;100.00;95488.13;7392185;19;20396;-89
2023/10/18 09:41:19;;;;;;;11.97;10.80;;;;;;;4.01;100.00;95496.06;7394298;19;20397;-89
2023/10/18 09:43:48;;;;;;;10.57;8.40;;;;;;;3.54;100.00;95414.72;7392651;19;20738;-89
2023/10/18 09:46:16;;;;;;;13.03;9.23;;;;;;;4.45;100.00;95550.75;7392241;19;20409;-89
2023/10/18 09:48:46;;;;;;;13.47;8.00;;;;;;;4.34;100.00;95512.88;7391670;19;20969;-89
2023/10/18 09:51:20;;;;;;;17.63;10.47;;;;;;;4.59;100.00;95524.44;7392424;19;20360;-90
2023/10/18 09:53:50;;;;;;;9.17;8.07;;;;;;;4.06;100.00;95435.75;7392315;19;20385;-90
2023/10/18 09:56:24;;;;;;;12.70;8.30;;;;;;;4.91;100.00;95535.53;7392056;19;20709;-89
2023/10/18 09:59:04;;;;;;;10.70;6.90;;;;;;;4.73;100.00;95496.28;7389279;19;20408;-89
2023/10/18 10:04:20;;;;;;;12.90;9.00;;;;;;;5.27;100.00;95543.81;7393106;19;20376;-88
2023/10/18 10:06:52;;;;;;;9.47;7.80;;;;;;;5.31;100.00;95526.38;7391845;19;20381;-90
2023/10/18 10:09:28;;;;;;;8.60;7.70;;;;;;;4.70;100.00;95447.16;7390099;19;20404;-89
2023/10/18 10:11:58;;;;;;;7.67;6.97;;;;;;;4.34;100.00;95368.97;7392124;19;20368;-89
2023/10/18 10:14:29;;;;;;;6.73;6.13;;;;;;;5.20;100.00;95492.97;7392023;19;20417;-90
2023/10/18 10:17:08;;;;;;;7.70;6.90;;;;;;;5.03;100.00;95451.84;7391437;19;20452;-89
2023/10/18 10:19:41;;;;;;;14.97;6.87;;;;;;;5.19;100.00;95455.50;7390137;19;20424;-89
2023/10/18 10:22:11;;;;;;;9.90;6.87;;;;;;;4.61;100.00;95360.00;7391160;19;20726;-89
2023/10/18 10:24:42;;;;;;;7.73;7.03;;;;;;;5.86;100.00;95509.84;7390999;19;20377;-90
2023/10/18 10:28:13;;;;;;;8.43;6.80;;;;;;;6.02;100.00;95501.50;7391359;19;20380;-89
2023/10/18 10:30:19;;;;;;;8.60;6.17;;;;;;;6.18;100.00;95499.88;7387865;19;20411;-90
2023/10/18 10:32:48;;;;;;;7.80;6.60;;;;;;;6.18;100.00;95468.38;7391604;19;20416;-90
2023/10/18 10:35:27;;;;;;;7.43;5.00;;;;;;;6.25;100.00;95454.72;7391548;19;20376;-90
2023/10/18 10:38:05;;;;;;;4.80;4.07;;;;;;;6.42;100.00;95476.41;7390935;19;20755;-90
2023/10/18 10:43:08;;;;;;;4.97;4.57;;;;;;;6.84;100.00;95486.88;7389932;19;20748;-89
2023/10/18 10:45:53;;;;;;;5.53;5.03;;;;;;;6.88;100.00;95484.38;7389753;19;20399;-89
2023/10/18 10:53:43;;;;;;;7.67;5.60;;;;;;;7.21;100.00;95463.31;7404053;19;20373;-87
2023/10/18 10:56:17;;;;;;;5.20;4.07;;;;;;;7.25;100.00;95470.25;7421214;19;20404;-87
2023/10/18 11:01:57;;;;;;;5.10;4.60;;;;;;;7.35;100.00;95469.84;7409882;19;20393;-89
2023/10/18 11:04:27;;;;;;;9.60;4.43;;;;;;;7.29;100.00;95465.09;7390942;19;20926;-90
2023/10/18 11:07:01;;;;;;;7.30;4.23;;;;;;;6.36;100.00;95306.25;7391233;19;20375;-90
2023/10/18 11:09:33;;;;;;;9.60;5.30;;;;;;;6.95;100.00;95390.81;7391721;19;20518;-89
2023/10/18 11:12:10;;;;;;;4.33;3.93;;;;;;;6.46;100.00;95300.59;7398373;19;20412;-90
2023/10/18 11:14:38;;;;;;;6.63;5.70;;;;;;;7.36;100.00;95412.75;7399309;19;20427;-90
2023/10/18 11:19:43;;;;;;;7.40;5.17;;;;;;;7.87;100.00;95410.53;7395240;19;20412;-91
2023/10/18 11:22:14;;;;;;;5.27;4.13;;;;;;;7.81;100.00;95372.41;7397234;19;20360;-90
2023/10/18 11:24:42;;;;;;;5.37;4.40;;;;;;;8.17;100.00;95418.97;7396741;19;20396;-90
2023/10/18 11:27:09;;;;;;;4.60;3.60;;;;;;;8.02;96.06;95398.59;7397072;19;20885;-89
2023/10/18 11:29:41;;;;;;;5.60;3.93;;;;;;;8.33;97.33;95411.91;7394393;19;20412;-90
2023/10/18 11:32:15;;;;;;;4.70;3.67;;;;;;;8.33;97.53;95390.81;7396776;19;20469;-88
2023/10/18 11:34:44;;;;;;;5.27;4.53;;;;;;;8.08;96.48;95355.91;7397429;19;20381;-90
2023/10/18 11:37:14;;;;;;;3.80;3.47;;;;;;;8.57;97.21;95401.31;7396500;19;20467;-91
2023/10/18 11:39:41;;;;;;;4.43;3.90;;;;;;;8.39;95.48;95380.84;7394819;19;20411;-90
2023/10/18 11:42:10;;;;;;;5.40;4.07;;;;;;;8.13;94.74;95328.56;7396713;19;20399;-90
2023/10/18 11:44:39;;;;;;;5.23;4.00;;;;;;;8.12;94.50;95317.28;7396453;19;20472;-90
2023/10/18 11:47:19;;;;;;;6.63;4.20;;;;;;;8.90;94.23;95410.81;7397146;19;20383;-90
2023/10/18 11:49:53;;;;;;;4.07;3.70;;;;;;;8.62;93.61;95352.09;7394132;19;20430;-90
2023/10/18 11:52:27;;;;;;;7.00;4.63;;;;;;;8.94;89.85;95376.63;7396717;19;20404;-90
2023/10/18 11:55:08;;;;;;;4.70;3.87;;;;;;;9.27;88.58;95389.50;7396313;19;20934;-90
2023/10/18 11:57:39;;;;;;;4.53;4.13;;;;;;;9.38;89.27;95364.16;7396184;19;20372;-90
2023/10/18 12:02:55;;;;;;;5.40;4.27;;;;;;;8.58;88.98;95236.88;7396267;19;20400;-91
2023/10/18 12:05:27;;;;;;;3.97;3.67;;;;;;;7.81;89.63;95204.78;7396057;19;20389;-91
2023/10/18 12:08:05;;;;;;;4.40;4.00;;;;;;;8.10;89.18;95272.09;7395586;19;20793;-90
2023/10/18 12:10:35;;;;;;;4.57;4.17;;;;;;;7.61;88.20;95147.84;7395653;19;20742;-89
2023/10/18 12:13:06;;;;;;;4.80;4.40;;;;;;;9.33;86.20;95317.69;7395761;19;20953;-91
2023/10/18 12:15:34;;;;;;;4.20;3.80;;;;;;;9.28;85.09;95281.03;7395698;19;20463;-90
2023/10/18 12:18:05;;;;;;;4.90;4.07;;;;;;;8.77;82.99;95203.78;7395032;19;20429;-91
2023/10/18 12:20:35;;;;;;;3.43;3.13;;;;;;;9.57;83.84;95297.47;7395412;19;20369;-89
2023/10/18 12:23:18;;;;;;;4.73;4.20;;;;;;;9.63;83.98;95325.13;7394907;19;20749;-89
2023/10/18 12:25:46;;;;;;;3.53;3.23;;;;;;;9.71;82.43;95292.50;7393995;19;20451;-90
2023/10/18 12:28:19;;;;;;;5.70;4.50;;;;;;;10.19;80.95;95349.31;7394849;19;20428;-90
2023/10/18 12:30:52;;;;;;;4.37;3.67;;;;;;;9.99;80.65;95345.13;7395019;19;20925;-91
2023/10/18 12:33:27;;;;;;;4.40;3.90;;;;;;;9.23;81.40;95277.91;7395698;19;20782;-90
2023/10/18 12:35:56;;;;;;;3.93;3.57;;;;;;;8.95;81.65;95241.09;7395391;19;20958;-90
2023/10/18 12:38:32;;;;;;;4.53;4.13;;;;;;;8.80;82.79;95255.81;7394821;19;20414;-90
2023/10/18 12:41:07;;;;;;;3.93;3.63;;;;;;;8.96;83.89;95266.38;7395499;19;20408;-90
2023/10/18 12:43:44;;;;;;;4.50;3.60;;;;;;;9.15;84.03;95275.09;7396039;19;20741;-90
2023/10/18 12:46:15;;;;;;;4.50;4.10;;;;;;;8.23;84.26;95151.69;7395789;19;20384;-90
2023/10/18 12:48:43;;;;;;;4.63;4.10;;;;;;;8.71;86.36;95256.00;7394236;19;20918;-90
2023/10/18 12:51:14;;;;;;;5.70;4.77;;;;;;;8.61;88.54;95264.41;7394707;19;20371;-90
2023/10/18 12:53:46;;;;;;;4.73;4.33;;;;;;;8.67;89.63;95244.59;7398047;19;20400;-87
2023/10/18 12:58:47;;;;;;;4.90;4.40;;;;;;;8.97;87.58;95217.81;7405247;19;20413;-87
2023/10/18 13:01:15;;;;;;;7.73;4.33;;;;;;;9.35;86.94;95240.88;7404394;19;20376;-87
2023/10/18 13:03:45;;;;;;;4.50;4.07;;;;;;;9.48;86.57;95261.50;7403229;19;20886;-87
2023/10/18 13:06:15;;;;;;;4.83;4.27;;;;;;;9.48;85.22;95264.16;7399776;19;20408;-87
2023/10/18 13:08:56;;;;;;;7.80;4.70;;;;;;;9.23;85.87;95267.34;7397370;19;20420;-87
2023/10/18 13:14:14;;;;;;;7.10;4.57;;;;;;;9.07;88.47;95262.06;7398395;19;20397;-88
2023/10/18 13:16:45;;;;;;;4.50;4.10;;;;;;;8.84;89.09;95244.25;7399351;19;20356;-87
2023/10/18 13:19:14;;;;;;;5.50;4.90;;;;;;;8.85;87.58;95234.47;7396912;19;20402;-87